Time;durP1;ratioP1;P1;durP2;ratioP2;P2;SDS_P1;SDS_P2;PMS_P1;PMS_P2;Temp;Humidity;BMP_temperature;BMP_pressure;BME280_temperature;BME280_humidity;BME280_pressure;Samples;Min_cycle;Max_cycle;Signal;HPM_P1;HPM_P2
2022/03/13 00:00:45;;;;;;;6.82;5.00;;;10.70;1.00;;;;;;5033722;28;20507;-84
2022/03/13 00:03:12;;;;;;;4.85;4.35;;;10.70;1.00;;;;;;5032576;28;20032;-84
2022/03/13 00:05:40;;;;;;;5.90;4.55;;;10.80;1.00;;;;;;5032555;28;20057;-84
2022/03/13 00:08:19;;;;;;;5.38;4.88;;;10.70;1.00;;;;;;5032420;28;20033;-85
2022/03/13 00:10:50;;;;;;;6.47;4.50;;;10.60;1.00;;;;;;5029500;28;20026;-84
2022/03/13 00:13:19;;;;;;;5.32;4.53;;;10.60;1.00;;;;;;5033118;28;20022;-84
2022/03/13 00:15:45;;;;;;;5.53;4.60;;;10.60;1.00;;;;;;5032148;28;20447;-84
2022/03/13 00:18:11;;;;;;;5.05;4.53;;;10.60;1.00;;;;;;5031801;28;20029;-84
2022/03/13 00:20:38;;;;;;;5.07;4.25;;;11.00;1.00;;;;;;5032581;28;20112;-84
2022/03/13 00:23:06;;;;;;;5.05;4.40;;;10.60;1.00;;;;;;5032150;28;20045;-84
2022/03/13 00:25:31;;;;;;;5.53;4.80;;;10.50;1.00;;;;;;5032459;28;20091;-84
2022/03/13 00:27:57;;;;;;;6.25;4.45;;;10.60;1.00;;;;;;5031796;28;20508;-84
2022/03/13 00:30:23;;;;;;;6.28;4.28;;;10.60;1.00;;;;;;5032047;28;20026;-84
2022/03/13 00:32:49;;;;;;;5.05;4.40;;;10.60;1.00;;;;;;5031296;28;20029;-84
2022/03/13 00:35:15;;;;;;;4.93;4.00;;;10.70;1.00;;;;;;5032103;28;20025;-84
2022/03/13 00:37:41;;;;;;;6.22;4.47;;;10.70;1.00;;;;;;5032168;28;20389;-84
2022/03/13 00:40:08;;;;;;;5.72;4.22;;;10.60;1.00;;;;;;5031994;28;20028;-84
2022/03/13 00:42:34;;;;;;;5.07;4.57;;;10.70;1.00;;;;;;5031642;28;20501;-84
2022/03/13 00:45:00;;;;;;;5.50;4.60;;;11.00;1.00;;;;;;5031961;28;20067;-84
2022/03/13 00:47:25;;;;;;;4.82;4.32;;;10.50;1.00;;;;;;5031302;28;20029;-84
2022/03/13 00:49:52;;;;;;;6.32;5.15;;;10.60;1.00;;;;;;5031786;28;20381;-84
2022/03/13 00:52:18;;;;;;;7.13;4.45;;;10.80;1.00;;;;;;5032021;28;20048;-84
2022/03/13 00:54:44;;;;;;;5.45;4.68;;;10.60;1.00;;;;;;5015321;28;20017;-84
2022/03/13 00:57:10;;;;;;;5.68;4.45;;;10.60;1.00;;;;;;5031265;28;20025;-84
2022/03/13 00:59:35;;;;;;;6.53;4.40;;;10.60;1.00;;;;;;5031340;28;20094;-84
2022/03/13 01:02:02;;;;;;;5.38;4.78;;;10.60;1.00;;;;;;5030321;28;20041;-84
2022/03/13 01:04:28;;;;;;;6.95;4.70;;;10.60;1.00;;;;;;5032337;28;20021;-84
2022/03/13 01:06:54;;;;;;;5.15;4.65;;;10.60;1.00;;;;;;5031199;28;20041;-85
2022/03/13 01:09:19;;;;;;;6.25;5.10;;;10.60;1.00;;;;;;5031823;28;20026;-84
2022/03/13 01:11:45;;;;;;;5.85;4.82;;;10.60;1.00;;;;;;5031265;28;20034;-84
2022/03/13 01:14:12;;;;;;;5.57;4.68;;;10.60;1.00;;;;;;5031260;28;20489;-84
2022/03/13 01:16:39;;;;;;;6.43;4.85;;;10.60;1.00;;;;;;5031493;28;20025;-84
2022/03/13 01:19:06;;;;;;;5.38;4.88;;;10.60;1.00;;;;;;5031872;28;20032;-84
2022/03/13 01:21:37;;;;;;;6.10;5.00;;;10.60;1.00;;;;;;5030857;28;20017;-84
2022/03/13 01:24:05;;;;;;;5.75;4.97;;;10.50;1.00;;;;;;5030858;28;20530;-85
2022/03/13 01:26:37;;;;;;;5.32;4.70;;;10.50;1.00;;;;;;5030997;28;20493;-84
2022/03/13 01:29:06;;;;;;;5.03;4.53;;;10.50;1.00;;;;;;5030883;28;20056;-84
2022/03/13 01:31:35;;;;;;;5.88;4.97;;;10.50;1.00;;;;;;5031446;28;20060;-84
2022/03/13 01:34:01;;;;;;;5.32;4.82;;;10.40;1.00;;;;;;5030744;28;20068;-84
2022/03/13 01:36:27;;;;;;;6.13;4.80;;;10.40;1.00;;;;;;5030779;28;20026;-85
2022/03/13 01:38:58;;;;;;;5.20;4.70;;;10.40;1.00;;;;;;5030943;28;20033;-85
2022/03/13 01:41:27;;;;;;;5.18;4.68;;;10.40;1.00;;;;;;5030856;28;20025;-84
2022/03/13 01:43:53;;;;;;;5.45;4.88;;;10.40;1.00;;;;;;5031033;28;20170;-84
2022/03/13 01:46:19;;;;;;;7.18;4.88;;;10.40;1.00;;;;;;5028606;28;20029;-84
2022/03/13 01:48:59;;;;;;;8.25;4.95;;;10.40;1.00;;;;;;5031461;28;20095;-84
2022/03/13 01:51:26;;;;;;;5.68;4.50;;;10.40;1.00;;;;;;5030368;28;20065;-84
2022/03/13 01:53:53;;;;;;;7.75;4.65;;;10.40;1.00;;;;;;5031094;28;20465;-84
2022/03/13 01:56:20;;;;;;;5.60;4.40;;;10.40;1.00;;;;;;5030471;28;20048;-85
2022/03/13 01:58:53;;;;;;;5.63;4.70;;;10.40;1.00;;;;;;5030200;28;20125;-84
2022/03/13 02:01:20;;;;;;;5.13;4.63;;;10.30;1.00;;;;;;5029379;28;20025;-84
2022/03/13 02:03:46;;;;;;;7.63;4.65;;;10.30;1.00;;;;;;5030594;28;20033;-85
2022/03/13 02:06:12;;;;;;;5.13;4.38;;;10.40;1.00;;;;;;5030915;28;20021;-84
2022/03/13 02:08:38;;;;;;;5.97;4.72;;;10.30;1.00;;;;;;5030668;28;20508;-84
2022/03/13 02:11:05;;;;;;;5.45;4.95;;;10.40;1.00;;;;;;5030538;28;20053;-84
2022/03/13 02:13:34;;;;;;;5.40;4.43;;;10.40;1.00;;;;;;5032726;28;20036;-84
2022/03/13 02:16:01;;;;;;;5.30;4.80;;;10.30;1.00;;;;;;5034818;28;20482;-84
2022/03/13 02:18:27;;;;;;;6.03;5.28;;;10.50;1.00;;;;;;5034435;28;20040;-84
2022/03/13 02:20:53;;;;;;;5.15;4.60;;;10.30;1.00;;;;;;5034235;28;20048;-84
2022/03/13 02:23:19;;;;;;;6.05;5.07;;;10.20;1.00;;;;;;5034608;28;20501;-84
2022/03/13 02:25:53;;;;;;;6.78;5.05;;;10.40;1.00;;;;;;5034836;28;20030;-85
2022/03/13 02:28:22;;;;;;;5.68;5.10;;;10.20;1.00;;;;;;5032457;28;20026;-84
2022/03/13 02:30:53;;;;;;;5.40;4.90;;;10.20;1.00;;;;;;5033821;28;20025;-85
2022/03/13 02:33:22;;;;;;;5.70;4.90;;;10.30;1.00;;;;;;5018393;28;20412;-84
2022/03/13 02:36:00;;;;;;;5.30;4.80;;;10.30;1.00;;;;;;5034247;28;20022;-84
2022/03/13 02:38:27;;;;;;;5.45;4.90;;;10.30;1.00;;;;;;5034041;28;20037;-84
2022/03/13 02:40:54;;;;;;;7.07;5.25;;;10.40;1.00;;;;;;5033868;28;20032;-84
2022/03/13 02:43:19;;;;;;;6.55;4.95;;;10.20;1.00;;;;;;5016530;28;20068;-85
2022/03/13 02:45:45;;;;;;;5.82;5.07;;;10.00;1.00;;;;;;5034284;28;20057;-84
2022/03/13 02:48:11;;;;;;;6.05;5.00;;;10.30;1.00;;;;;;5034107;28;20446;-85
2022/03/13 02:50:38;;;;;;;5.95;4.93;;;10.10;1.00;;;;;;5033815;28;20018;-84
2022/03/13 02:53:04;;;;;;;5.45;4.90;;;10.00;1.00;;;;;;5033688;28;20508;-85
2022/03/13 02:55:31;;;;;;;5.43;4.93;;;10.10;1.00;;;;;;5034642;28;20817;-84
2022/03/13 02:57:57;;;;;;;5.80;5.20;;;10.30;1.00;;;;;;5033369;28;20033;-84
2022/03/13 03:00:43;;;;;;;6.25;5.13;;;10.00;1.00;;;;;;5033997;28;20033;-84
2022/03/13 03:03:12;;;;;;;5.95;5.28;;;10.10;1.00;;;;;;5033829;28;20033;-84
2022/03/13 03:05:37;;;;;;;6.10;5.50;;;10.10;1.00;;;;;;5033572;28;20087;-84
2022/03/13 03:08:04;;;;;;;5.80;5.20;;;10.20;1.00;;;;;;5033486;28;20029;-85
2022/03/13 03:10:29;;;;;;;6.15;5.55;;;10.00;1.00;;;;;;5033931;28;20025;-84
2022/03/13 03:12:55;;;;;;;6.78;5.63;;;10.00;1.00;;;;;;5032954;28;20498;-85
2022/03/13 03:15:23;;;;;;;7.30;5.80;;;10.00;1.00;;;;;;5033679;28;20478;-84
2022/03/13 03:17:48;;;;;;;5.70;5.20;;;10.00;1.00;;;;;;5033310;28;20399;-84
2022/03/13 03:20:14;;;;;;;6.50;5.57;;;10.20;1.00;;;;;;5033716;28;20032;-84
2022/03/13 03:22:40;;;;;;;5.95;5.35;;;10.00;1.00;;;;;;5033473;28;20061;-84
2022/03/13 03:25:06;;;;;;;6.78;5.55;;;9.90;1.00;;;;;;5032342;28;20033;-84
2022/03/13 03:27:32;;;;;;;6.78;5.30;;;9.80;1.00;;;;;;5032640;28;20025;-84
2022/03/13 03:29:59;;;;;;;6.50;5.32;;;10.10;1.00;;;;;;5032992;28;20069;-84
2022/03/13 03:32:25;;;;;;;7.70;5.18;;;10.20;1.00;;;;;;5033433;28;20044;-84
2022/03/13 03:34:51;;;;;;;5.47;4.95;;;9.90;1.00;;;;;;5033563;28;20026;-84
2022/03/13 03:37:16;;;;;;;7.20;5.28;;;10.30;1.00;;;;;;5033391;28;20041;-85
2022/03/13 03:39:42;;;;;;;5.65;5.00;;;10.30;1.00;;;;;;5032859;28;20025;-84
2022/03/13 03:42:08;;;;;;;5.85;5.32;;;10.30;1.00;;;;;;5032449;28;20026;-84
2022/03/13 03:44:33;;;;;;;6.60;4.80;;;9.90;1.00;;;;;;5033228;28;20083;-84
2022/03/13 03:46:59;;;;;;;5.40;4.90;;;9.90;1.00;;;;;;5032815;28;20037;-85
2022/03/13 03:49:25;;;;;;;5.35;4.85;;;9.80;1.00;;;;;;5033664;28;20112;-85
2022/03/13 03:51:52;;;;;;;6.88;5.00;;;9.90;1.00;;;;;;5032518;28;20561;-84
2022/03/13 03:54:17;;;;;;;6.80;5.00;;;9.90;1.00;;;;;;5032510;28;20029;-84
2022/03/13 03:56:43;;;;;;;6.65;5.25;;;9.90;1.00;;;;;;5032315;28;20509;-84
2022/03/13 03:59:09;;;;;;;5.85;5.20;;;9.90;1.00;;;;;;5033502;28;20134;-85
2022/03/13 04:01:39;;;;;;;5.93;5.30;;;9.90;1.00;;;;;;5032876;28;20068;-85
2022/03/13 04:04:06;;;;;;;7.20;5.57;;;9.90;1.00;;;;;;5032829;28;20083;-84
2022/03/13 04:06:33;;;;;;;5.93;5.32;;;9.90;1.00;;;;;;5032242;28;20029;-84
2022/03/13 04:09:00;;;;;;;5.97;5.40;;;9.90;1.00;;;;;;5032171;28;20025;-84
2022/03/13 04:11:25;;;;;;;7.10;5.78;;;10.10;1.00;;;;;;5032322;28;20052;-84
2022/03/13 04:13:51;;;;;;;6.50;5.63;;;9.90;1.00;;;;;;5032840;28;20136;-84
2022/03/13 04:16:16;;;;;;;6.10;4.97;;;9.90;1.00;;;;;;5033030;28;20029;-84
2022/03/13 04:18:42;;;;;;;6.28;5.53;;;9.90;1.00;;;;;;5032159;28;20063;-84
2022/03/13 04:21:08;;;;;;;7.35;5.90;;;9.90;1.00;;;;;;5032458;28;20409;-85
2022/03/13 04:23:35;;;;;;;6.13;5.32;;;9.90;1.00;;;;;;5031640;28;20114;-85
2022/03/13 04:26:02;;;;;;;6.10;5.28;;;9.90;1.00;;;;;;5031769;28;20521;-84
2022/03/13 04:28:29;;;;;;;5.68;5.18;;;9.80;1.00;;;;;;5033268;28;20029;-84
2022/03/13 04:30:57;;;;;;;6.95;5.25;;;9.80;1.00;;;;;;5031686;28;20033;-85
2022/03/13 04:33:23;;;;;;;7.28;5.85;;;9.90;1.00;;;;;;5032217;28;20033;-84
2022/03/13 04:35:49;;;;;;;6.95;5.80;;;10.20;1.00;;;;;;5031604;28;20033;-85
2022/03/13 04:38:15;;;;;;;5.93;5.32;;;10.10;1.00;;;;;;5030770;28;20156;-84
2022/03/13 04:40:40;;;;;;;7.43;5.90;;;10.00;1.00;;;;;;5032009;28;20049;-85
2022/03/13 04:43:07;;;;;;;6.68;5.53;;;10.00;1.00;;;;;;5031949;28;20033;-84
2022/03/13 04:45:34;;;;;;;8.23;5.60;;;10.10;1.00;;;;;;5031975;28;20040;-84
2022/03/13 04:47:59;;;;;;;7.20;6.10;;;10.00;1.00;;;;;;5031481;28;20104;-85
2022/03/13 04:50:25;;;;;;;6.68;5.70;;;10.10;1.00;;;;;;5031673;28;20044;-84
2022/03/13 04:52:50;;;;;;;6.38;5.78;;;10.00;1.00;;;;;;5031244;28;20030;-85
2022/03/13 04:55:18;;;;;;;6.10;5.50;;;10.00;1.00;;;;;;5032386;28;20018;-84
2022/03/13 04:57:43;;;;;;;7.63;6.20;;;9.90;1.00;;;;;;5031386;28;20059;-84
2022/03/13 05:00:10;;;;;;;7.72;5.85;;;10.00;1.00;;;;;;5031354;28;20049;-84
2022/03/13 05:02:37;;;;;;;6.68;5.60;;;10.00;1.00;;;;;;5031416;28;20037;-84
2022/03/13 05:05:03;;;;;;;6.32;5.72;;;9.90;1.00;;;;;;5032062;28;20017;-85
2022/03/13 05:07:30;;;;;;;7.47;6.20;;;9.90;1.00;;;;;;5031639;28;20449;-84
2022/03/13 05:09:56;;;;;;;6.85;6.00;;;10.00;1.00;;;;;;5014735;28;20120;-85
2022/03/13 05:12:27;;;;;;;6.78;5.90;;;10.10;1.00;;;;;;5031470;28;20116;-85
2022/03/13 05:14:53;;;;;;;6.85;5.50;;;10.10;1.00;;;;;;5030843;28;20030;-85
2022/03/13 05:17:18;;;;;;;8.35;6.13;;;10.00;1.00;;;;;;5031558;28;20033;-84
2022/03/13 05:19:44;;;;;;;8.25;6.30;;;10.10;1.00;;;;;;5031425;28;20036;-85
2022/03/13 05:22:10;;;;;;;8.98;6.82;;;10.20;1.00;;;;;;5029791;28;20409;-84
2022/03/13 05:24:36;;;;;;;6.82;6.10;;;9.80;1.00;;;;;;5031419;28;20113;-85
2022/03/13 05:27:02;;;;;;;7.50;6.20;;;9.90;1.00;;;;;;5030978;28;20148;-84
2022/03/13 05:29:27;;;;;;;7.55;6.18;;;9.90;1.00;;;;;;5030911;28;20021;-85
2022/03/13 05:31:53;;;;;;;6.85;6.10;;;9.90;1.00;;;;;;5031452;28;20045;-84
2022/03/13 05:34:19;;;;;;;6.65;5.95;;;9.90;1.00;;;;;;5029281;28;20026;-84
2022/03/13 05:36:46;;;;;;;7.70;6.22;;;9.90;1.00;;;;;;5029843;28;20548;-85
2022/03/13 05:39:13;;;;;;;7.22;6.20;;;9.80;1.00;;;;;;5030750;28;20463;-85
2022/03/13 05:41:39;;;;;;;6.82;5.80;;;9.80;1.00;;;;;;5031161;28;20018;-85
2022/03/13 05:44:12;;;;;;;8.55;6.28;;;9.90;1.00;;;;;;5030955;28;20168;-85
2022/03/13 05:46:37;;;;;;;7.18;6.47;;;10.20;1.00;;;;;;5027801;28;20029;-85
2022/03/13 05:49:03;;;;;;;8.15;6.50;;;9.90;1.00;;;;;;5033945;28;20028;-84
2022/03/13 05:51:36;;;;;;;7.00;6.30;;;9.80;1.00;;;;;;5034453;28;20037;-85
2022/03/13 05:54:05;;;;;;;6.90;6.20;;;9.90;1.00;;;;;;5035149;28;20168;-85
2022/03/13 05:56:30;;;;;;;7.22;6.38;;;10.20;1.00;;;;;;5035137;28;20114;-84
2022/03/13 05:58:56;;;;;;;7.05;6.07;;;9.80;1.00;;;;;;5034808;28;20118;-85
2022/03/13 06:01:22;;;;;;;7.20;6.00;;;10.00;1.00;;;;;;5035866;28;20033;-85
2022/03/13 06:03:51;;;;;;;7.05;6.35;;;9.90;1.00;;;;;;5035046;28;20021;-84
2022/03/13 06:06:17;;;;;;;7.15;6.22;;;10.30;1.00;;;;;;5034320;28;20037;-84
2022/03/13 06:08:43;;;;;;;7.40;6.32;;;10.00;1.00;;;;;;5034935;28;20119;-85
2022/03/13 06:11:09;;;;;;;8.90;6.63;;;10.00;1.00;;;;;;5034965;28;20030;-84
2022/03/13 06:13:35;;;;;;;7.47;6.30;;;10.10;1.00;;;;;;5035542;28;20033;-85
2022/03/13 06:16:01;;;;;;;7.43;6.20;;;10.10;1.00;;;;;;5034375;28;20021;-84
2022/03/13 06:18:27;;;;;;;9.55;6.32;;;10.10;1.00;;;;;;5034519;28;20140;-85
2022/03/13 06:20:53;;;;;;;7.97;6.25;;;10.40;1.00;;;;;;5034142;28;20025;-84
2022/03/13 06:23:19;;;;;;;7.13;6.22;;;10.10;1.00;;;;;;5034195;28;20049;-85
2022/03/13 06:25:45;;;;;;;7.28;6.10;;;10.20;1.00;;;;;;5035248;28;20096;-85
2022/03/13 06:28:12;;;;;;;6.93;6.22;;;10.10;1.00;;;;;;5033796;28;20421;-85
2022/03/13 06:30:38;;;;;;;7.65;6.38;;;10.00;1.00;;;;;;5034885;28;20429;-84
2022/03/13 06:33:04;;;;;;;9.00;6.07;;;10.10;1.00;;;;;;5033940;28;20060;-85
2022/03/13 06:35:30;;;;;;;6.15;5.47;;;10.10;1.00;;;;;;5034558;28;20061;-84
2022/03/13 06:37:56;;;;;;;6.82;5.60;;;10.00;1.00;;;;;;5035190;28;20144;-86
2022/03/13 06:40:24;;;;;;;7.93;6.22;;;10.00;1.00;;;;;;5034611;28;20021;-88
2022/03/13 06:42:51;;;;;;;9.48;6.40;;;9.90;1.00;;;;;;5017728;28;20120;-88
2022/03/13 06:45:18;;;;;;;7.68;5.57;;;10.00;1.00;;;;;;5017355;28;20393;-88
2022/03/13 06:47:46;;;;;;;7.25;6.38;;;10.40;1.00;;;;;;5034606;28;20021;-88
2022/03/13 06:50:14;;;;;;;7.50;5.82;;;10.30;1.00;;;;;;5033810;28;20021;-88
2022/03/13 06:52:39;;;;;;;6.68;5.95;;;10.00;1.00;;;;;;5016659;28;20452;-86
2022/03/13 06:55:06;;;;;;;7.72;5.95;;;9.90;1.00;;;;;;5034134;28;20049;-86
2022/03/13 06:57:32;;;;;;;6.60;5.88;;;9.90;1.00;;;;;;5033537;28;20022;-86
2022/03/13 06:59:58;;;;;;;7.32;6.63;;;9.90;1.00;;;;;;5032667;28;20026;-86
2022/03/13 07:02:23;;;;;;;11.50;10.30;;;9.90;1.00;;;;;;5033630;28;20053;-86
2022/03/13 07:04:49;;;;;;;7.63;6.40;;;10.20;1.00;;;;;;5033421;28;20152;-86
2022/03/13 07:07:15;;;;;;;7.45;6.28;;;10.20;1.00;;;;;;5016821;28;20072;-86
2022/03/13 07:09:40;;;;;;;7.68;6.35;;;9.90;1.00;;;;;;5033970;28;20030;-86
2022/03/13 07:12:11;;;;;;;7.63;6.38;;;10.40;1.00;;;;;;5032811;28;20034;-86
2022/03/13 07:14:45;;;;;;;9.95;6.07;;;10.00;1.00;;;;;;5033070;28;20026;-86
2022/03/13 07:17:11;;;;;;;9.85;6.40;;;10.00;1.00;;;;;;5017637;28;20018;-86
2022/03/13 07:19:37;;;;;;;8.40;6.45;;;10.00;1.00;;;;;;5033465;28;20029;-86
2022/03/13 07:22:03;;;;;;;7.70;6.32;;;10.20;1.00;;;;;;5032870;28;20036;-86
2022/03/13 07:24:29;;;;;;;6.95;6.25;;;9.90;1.00;;;;;;5033490;28;20038;-86
2022/03/13 07:26:55;;;;;;;7.55;5.95;;;10.00;1.00;;;;;;5032637;28;20076;-86
2022/03/13 07:29:20;;;;;;;9.07;6.20;;;10.10;1.00;;;;;;5033112;28;20075;-86
2022/03/13 07:31:46;;;;;;;8.93;6.28;;;10.00;1.00;;;;;;5033234;28;20026;-86
2022/03/13 07:34:12;;;;;;;7.07;5.70;;;10.10;1.00;;;;;;5032633;28;20563;-86
2022/03/13 07:36:39;;;;;;;7.40;5.85;;;10.00;1.00;;;;;;5032927;28;20036;-86
2022/03/13 07:39:05;;;;;;;7.43;5.90;;;10.00;1.00;;;;;;5032903;28;20026;-86
2022/03/13 07:41:31;;;;;;;7.40;6.03;;;10.40;1.00;;;;;;5033113;28;20041;-86
2022/03/13 07:43:58;;;;;;;7.00;6.20;;;10.10;1.00;;;;;;5015088;28;20117;-86
2022/03/13 07:46:24;;;;;;;6.80;6.07;;;10.10;1.00;;;;;;5033172;28;20022;-86
2022/03/13 07:48:49;;;;;;;9.10;6.07;;;10.00;1.00;;;;;;5032731;28;20469;-86
2022/03/13 07:51:17;;;;;;;7.35;6.13;;;10.10;1.00;;;;;;5017093;28;20034;-86
2022/03/13 07:53:43;;;;;;;6.53;5.90;;;10.10;1.00;;;;;;5016784;28;20029;-91
2022/03/13 07:56:09;;;;;;;8.15;6.05;;;10.20;1.00;;;;;;5016168;28;20029;-90
2022/03/13 07:58:34;;;;;;;9.82;6.53;;;10.30;1.00;;;;;;5015913;28;20088;-91
2022/03/13 08:01:00;;;;;;;7.22;5.93;;;10.70;1.00;;;;;;5034005;28;20029;-91
2022/03/13 08:03:28;;;;;;;7.68;5.85;;;10.60;1.00;;;;;;5032937;28;20033;-91
2022/03/13 08:05:53;;;;;;;8.25;6.07;;;10.60;1.00;;;;;;5033184;28;20152;-90
2022/03/13 08:08:19;;;;;;;7.38;6.00;;;10.70;1.00;;;;;;5017210;28;20044;-91
2022/03/13 08:10:45;;;;;;;7.38;6.47;;;10.70;1.00;;;;;;5032965;28;20025;-90
2022/03/13 08:13:11;;;;;;;7.88;6.72;;;10.60;1.00;;;;;;5033418;28;20045;-90
2022/03/13 08:15:38;;;;;;;7.63;6.43;;;10.60;1.00;;;;;;5016205;28;20470;-89
2022/03/13 08:18:04;;;;;;;6.57;5.88;;;10.60;1.00;;;;;;5018609;28;20394;-90
2022/03/13 08:20:29;;;;;;;7.13;6.28;;;10.60;1.00;;;;;;5016647;28;20036;-91
2022/03/13 08:22:55;;;;;;;8.10;6.25;;;10.60;1.00;;;;;;5014628;28;20675;-91
2022/03/13 08:25:21;;;;;;;8.10;6.13;;;10.50;1.00;;;;;;5033595;28;20263;-91
2022/03/13 08:27:47;;;;;;;8.68;6.80;;;10.60;1.00;;;;;;5032812;28;20021;-91
2022/03/13 08:30:13;;;;;;;7.63;6.30;;;10.60;1.00;;;;;;5032055;28;20037;-90
2022/03/13 08:32:39;;;;;;;7.28;6.35;;;10.60;1.00;;;;;;5032564;28;20528;-91
2022/03/13 08:35:09;;;;;;;7.13;6.25;;;10.60;1.00;;;;;;5014951;28;20052;-91
2022/03/13 08:37:36;;;;;;;8.57;6.57;;;10.70;1.00;;;;;;5016036;28;20029;-90
2022/03/13 08:40:06;;;;;;;8.05;6.38;;;10.60;1.00;;;;;;5015195;28;20049;-91
2022/03/13 08:42:32;;;;;;;7.10;5.90;;;10.70;1.00;;;;;;5017176;28;20303;-91
2022/03/13 08:44:59;;;;;;;11.07;6.82;;;10.70;1.00;;;;;;5032437;28;20078;-90
2022/03/13 08:47:25;;;;;;;9.27;6.97;;;10.60;1.00;;;;;;5031893;28;20025;-91
2022/03/13 08:49:51;;;;;;;9.85;6.70;;;10.70;1.00;;;;;;5014474;28;20033;-90
2022/03/13 08:52:17;;;;;;;7.22;5.88;;;10.80;1.00;;;;;;5033883;28;20065;-93
2022/03/13 08:54:43;;;;;;;7.93;6.13;;;10.80;1.00;;;;;;5018491;28;20456;-90
2022/03/13 08:57:09;;;;;;;7.53;6.55;;;10.90;1.00;;;;;;5018049;28;20393;-89
2022/03/13 08:59:37;;;;;;;8.57;6.65;;;11.00;1.00;;;;;;5015488;28;20013;-88
2022/03/13 09:02:04;;;;;;;7.97;6.43;;;11.00;1.00;;;;;;5032228;28;20095;-90
2022/03/13 09:04:30;;;;;;;7.03;6.32;;;11.10;1.00;;;;;;5014994;28;20028;-91
2022/03/13 09:06:57;;;;;;;7.88;7.00;;;11.10;1.00;;;;;;5015837;28;20039;-90
2022/03/13 09:09:23;;;;;;;7.90;6.18;;;11.00;1.00;;;;;;5031875;28;20036;-90
2022/03/13 09:11:51;;;;;;;8.45;6.55;;;11.00;1.00;;;;;;5031721;28;20390;-91
2022/03/13 09:14:17;;;;;;;9.40;6.85;;;11.00;1.00;;;;;;5031396;28;20176;-91
2022/03/13 09:16:45;;;;;;;9.35;6.43;;;11.20;1.00;;;;;;5032012;28;20060;-91
2022/03/13 09:19:11;;;;;;;7.72;6.40;;;11.10;1.00;;;;;;5031646;28;20037;-91
2022/03/13 09:21:38;;;;;;;8.02;6.70;;;11.20;1.00;;;;;;5031752;28;20043;-91
2022/03/13 09:24:08;;;;;;;9.45;6.82;;;11.30;1.00;;;;;;5030825;28;20045;-91
2022/03/13 09:26:35;;;;;;;8.75;6.97;;;11.40;1.00;;;;;;5031814;28;20490;-91
2022/03/13 09:29:04;;;;;;;8.32;6.97;;;11.50;1.00;;;;;;5031319;28;20498;-90
2022/03/13 09:31:30;;;;;;;8.73;6.93;;;11.70;1.00;;;;;;5032065;28;20067;-91
2022/03/13 09:33:55;;;;;;;9.23;6.78;;;11.90;1.00;;;;;;5031663;28;20505;-91
2022/03/13 09:36:21;;;;;;;7.00;6.18;;;11.70;1.00;;;;;;5031416;28;20033;-91
2022/03/13 09:38:47;;;;;;;8.50;6.65;;;11.80;1.00;;;;;;5014166;28;20136;-88
2022/03/13 09:41:13;;;;;;;8.57;6.90;;;11.90;1.00;;;;;;5031767;28;20033;-89
2022/03/13 09:43:40;;;;;;;7.40;6.68;;;11.90;1.00;;;;;;5032162;28;20429;-89
2022/03/13 09:46:06;;;;;;;9.95;7.25;;;12.10;1.00;;;;;;5031688;28;20068;-89
2022/03/13 09:48:35;;;;;;;9.23;7.18;;;12.10;1.00;;;;;;5031052;28;20128;-89
2022/03/13 09:51:04;;;;;;;8.02;6.50;;;12.30;1.00;;;;;;5031439;28;20029;-89
2022/03/13 09:53:34;;;;;;;7.85;6.22;;;12.30;1.00;;;;;;5014945;28;20041;-89
2022/03/13 09:56:01;;;;;;;7.75;6.10;;;12.20;1.00;;;;;;5031122;28;20091;-90
2022/03/13 09:58:28;;;;;;;6.97;6.15;;;12.50;1.00;;;;;;5031653;28;20029;-89
2022/03/13 10:00:54;;;;;;;9.05;6.25;;;12.50;1.00;;;;;;5031310;28;20072;-89
2022/03/13 10:03:20;;;;;;;8.60;6.55;;;12.60;1.00;;;;;;5031120;28;20502;-89
2022/03/13 10:05:47;;;;;;;7.65;6.82;;;12.80;1.00;;;;;;5016141;28;20029;-89
2022/03/13 10:08:14;;;;;;;8.25;5.95;;;12.70;1.00;;;;;;5013929;28;20398;-89
2022/03/13 10:10:43;;;;;;;8.60;6.68;;;12.90;1.00;;;;;;5014050;28;20029;-89
2022/03/13 10:13:09;;;;;;;9.57;7.13;;;12.90;1.00;;;;;;5014304;28;20401;-89
2022/03/13 10:15:49;;;;;;;7.90;6.63;;;13.00;1.00;;;;;;5015942;28;20484;-89
2022/03/13 10:18:17;;;;;;;8.32;6.95;;;13.20;1.00;;;;;;5031386;28;20037;-89
2022/03/13 10:20:44;;;;;;;10.35;6.47;;;13.70;1.00;;;;;;5031353;28;20022;-89
2022/03/13 10:23:12;;;;;;;9.52;6.45;;;14.00;1.00;;;;;;4997936;28;20041;-89
2022/03/13 10:25:42;;;;;;;6.50;5.90;;;14.00;1.00;;;;;;5027720;28;20032;-89
2022/03/13 10:28:16;;;;;;;6.53;5.88;;;14.50;1.00;;;;;;5030974;28;20030;-89
2022/03/13 10:30:43;;;;;;;7.88;6.38;;;14.60;1.00;;;;;;5030872;28;20021;-89
2022/03/13 10:33:09;;;;;;;6.55;5.90;;;14.10;1.00;;;;;;5020496;28;20037;-89
2022/03/13 10:35:36;;;;;;;6.15;5.50;;;14.40;1.00;;;;;;5034954;28;20033;-90
2022/03/13 10:38:13;;;;;;;8.30;6.28;;;14.20;1.00;;;;;;5034894;28;20036;-89
2022/03/13 10:40:39;;;;;;;6.82;6.13;;;14.00;1.00;;;;;;5030737;28;20030;-89
2022/03/13 10:43:06;;;;;;;6.75;5.68;;;14.30;1.00;;;;;;5034983;28;20040;-89
2022/03/13 10:45:36;;;;;;;6.53;5.85;;;14.70;1.00;;;;;;5034574;28;20026;-89
2022/03/13 10:48:24;;;;;;;6.63;5.93;;;15.10;1.00;;;;;;5034264;28;20060;-89
2022/03/13 10:50:51;;;;;;;6.72;5.47;;;16.10;1.00;;;;;;5034951;28;20080;-90
2022/03/13 10:53:19;;;;;;;7.82;5.80;;;16.40;1.00;;;;;;5017873;28;20504;-90
2022/03/13 10:56:09;;;;;;;6.60;5.20;;;15.30;1.00;;;;;;5016500;28;20026;-89
2022/03/13 10:58:45;;;;;;;6.53;5.93;;;14.90;1.00;;;;;;5035175;28;20425;-90
2022/03/13 11:01:16;;;;;;;6.55;5.70;;;14.70;1.00;;;;;;5018054;28;20029;-89
2022/03/13 11:04:07;;;;;;;8.13;5.57;;;14.40;1.00;;;;;;5034482;28;20105;-89
2022/03/13 11:06:33;;;;;;;6.20;5.50;;;14.20;1.00;;;;;;5034190;28;20022;-90
2022/03/13 11:08:59;;;;;;;6.47;5.53;;;14.30;1.00;;;;;;5034215;28;20108;-89
2022/03/13 11:11:31;;;;;;;6.40;5.80;;;14.20;1.00;;;;;;5033836;28;20029;-89
2022/03/13 11:14:01;;;;;;;6.90;5.85;;;14.30;1.00;;;;;;5034437;28;20501;-89
2022/03/13 11:16:32;;;;;;;6.63;5.45;;;14.40;1.00;;;;;;5034791;28;20040;-89
2022/03/13 11:19:01;;;;;;;6.32;5.22;;;14.40;1.00;;;;;;5017559;28;20037;-89
2022/03/13 11:21:27;;;;;;;7.70;5.40;;;14.40;1.00;;;;;;5033500;28;20033;-89
2022/03/13 11:23:53;;;;;;;5.95;5.00;;;15.10;1.00;;;;;;5017920;28;20052;-89
2022/03/13 11:26:22;;;;;;;5.47;4.97;;;15.60;1.00;;;;;;5033770;28;20033;-89
2022/03/13 11:28:49;;;;;;;7.35;5.82;;;15.90;1.00;;;;;;5033747;28;20025;-90
2022/03/13 11:31:38;;;;;;;6.40;5.70;;;16.70;1.00;;;;;;5034089;28;20470;-89
2022/03/13 11:34:18;;;;;;;5.60;4.97;;;16.30;1.00;;;;;;5018325;28;20042;-89
2022/03/13 11:36:48;;;;;;;6.43;5.78;;;16.20;1.00;;;;;;5033670;28;20047;-90
2022/03/13 11:39:27;;;;;;;5.47;4.90;;;15.80;1.00;;;;;;5033574;28;20025;-89
2022/03/13 11:41:54;;;;;;;5.45;4.95;;;15.30;1.00;;;;;;5033459;28;20033;-89
2022/03/13 11:44:28;;;;;;;5.88;5.28;;;15.30;1.00;;;;;;5033694;28;20041;-89
2022/03/13 11:46:55;;;;;;;6.10;5.50;;;16.20;1.00;;;;;;5033142;28;20065;-89
2022/03/13 11:49:30;;;;;;;7.47;5.78;;;16.00;1.00;;;;;;5014276;28;20474;-90
2022/03/13 11:52:15;;;;;;;6.45;5.65;;;15.90;1.00;;;;;;5017190;28;20030;-88
2022/03/13 11:54:48;;;;;;;7.78;5.70;;;16.10;1.00;;;;;;5033183;28;20382;-89
2022/03/13 11:57:23;;;;;;;5.90;5.40;;;15.80;1.00;;;;;;5033135;28;20081;-88
2022/03/13 12:00:15;;;;;;;6.78;5.88;;;15.80;1.00;;;;;;5033439;28;20082;-89
2022/03/13 12:02:41;;;;;;;8.25;6.65;;;15.20;1.00;;;;;;4994794;28;20034;-90
2022/03/13 12:05:25;;;;;;;8.75;6.22;;;14.70;1.00;;;;;;4977566;28;20046;-89
2022/03/13 12:08:08;;;;;;;7.10;6.40;;;14.70;1.00;;;;;;4990213;28;20075;-90
2022/03/13 12:10:41;;;;;;;11.38;9.80;;;14.50;1.00;;;;;;4992039;28;20045;-89
2022/03/13 12:13:11;;;;;;;7.72;6.93;;;14.40;1.00;;;;;;4998652;28;20055;-89
2022/03/13 12:15:39;;;;;;;7.47;6.28;;;14.40;1.00;;;;;;4970441;28;20042;-89
2022/03/13 12:18:17;;;;;;;7.75;6.35;;;14.40;1.00;;;;;;4983213;28;20027;-89
2022/03/13 12:20:48;;;;;;;10.57;9.45;;;14.50;1.00;;;;;;4984256;28;20073;-89
2022/03/13 12:23:27;;;;;;;8.70;7.15;;;14.50;1.00;;;;;;4977393;28;20113;-90
2022/03/13 12:26:11;;;;;;;6.55;5.00;;;14.60;1.00;;;;;;4992024;28;20038;-90
2022/03/13 12:28:37;;;;;;;6.00;5.00;;;14.40;1.00;;;;;;4975538;28;20030;-89
2022/03/13 12:31:03;;;;;;;5.50;4.93;;;14.40;1.00;;;;;;4983680;28;20039;-89
2022/03/13 12:33:31;;;;;;;6.38;5.18;;;14.20;1.00;;;;;;4989046;28;20042;-89
2022/03/13 12:35:57;;;;;;;6.20;4.75;;;14.40;1.00;;;;;;4992176;28;20513;-89
2022/03/13 12:38:31;;;;;;;5.45;4.35;;;14.30;1.00;;;;;;4995138;28;20580;-89
2022/03/13 12:40:59;;;;;;;7.03;4.95;;;14.30;1.00;;;;;;5012885;28;20539;-89
2022/03/13 12:43:48;;;;;;;6.80;5.25;;;14.40;1.00;;;;;;5017418;28;20057;-89
2022/03/13 12:46:17;;;;;;;5.97;4.70;;;14.30;1.00;;;;;;5016080;28;20033;-89
2022/03/13 12:48:57;;;;;;;5.72;4.90;;;14.20;1.00;;;;;;5017399;28;20037;-89
2022/03/13 12:51:44;;;;;;;5.00;4.50;;;14.20;1.00;;;;;;5031771;28;20028;-89
2022/03/13 12:54:16;;;;;;;4.78;4.38;;;14.30;1.00;;;;;;5032023;28;20135;-89
2022/03/13 12:56:47;;;;;;;6.63;4.25;;;14.30;1.00;;;;;;5032191;28;20052;-89
2022/03/13 12:59:28;;;;;;;4.95;4.43;;;14.20;1.00;;;;;;4998997;28;20032;-89
2022/03/13 13:02:26;;;;;;;4.68;4.15;;;14.00;1.00;;;;;;5032941;28;20493;-89